createdAt,value
2023-05-02T00:01:22.045Z,7.6
2023-05-02T00:06:04.936Z,7.6
2023-05-02T00:10:47.643Z,7.4
2023-05-02T00:20:13.078Z,7.3
2023-05-02T00:24:55.820Z,7.4
2023-05-02T00:29:38.436Z,7.4
2023-05-02T00:39:03.964Z,7.1
2023-05-02T00:43:46.741Z,7.2
2023-05-02T00:48:29.399Z,7
2023-05-02T00:53:11.541Z,7
2023-05-02T00:57:53.425Z,6.7
2023-05-02T01:02:36.171Z,6.7
2023-05-02T01:07:19.029Z,6.5
2023-05-02T01:12:01.673Z,6.5
2023-05-02T01:16:44.374Z,6.5
2023-05-02T01:21:27.102Z,6.5
2023-05-02T01:26:09.819Z,6.3
2023-05-02T01:30:52.616Z,6.3
2023-05-02T01:35:35.246Z,6.2
2023-05-02T01:40:18.068Z,6.3
2023-05-02T01:49:43.585Z,6.2
2023-05-02T01:54:26.212Z,5.9
2023-05-02T01:59:08.938Z,5.9
2023-05-02T02:03:51.645Z,5.6
2023-05-02T02:08:34.498Z,5.9
2023-05-02T02:13:17.204Z,5.9
2023-05-02T02:17:59.190Z,5.8
2023-05-02T02:22:41.948Z,5.8
2023-05-02T02:27:24.636Z,5.5
2023-05-02T02:32:07.405Z,5.6
2023-05-02T02:36:50.052Z,5.5
2023-05-02T02:41:32.902Z,5.6
2023-05-02T02:46:15.681Z,5.8
2023-05-02T02:50:58.298Z,5.8
2023-05-02T03:00:23.743Z,5.6
2023-05-02T03:05:06.436Z,5.6
2023-05-02T03:09:49.374Z,5.5
2023-05-02T03:14:31.353Z,5.5
2023-05-02T03:19:13.991Z,5.4
2023-05-02T03:23:56.713Z,5.4
2023-05-02T03:28:38.949Z,5.3
2023-05-02T03:33:21.477Z,5.1
2023-05-02T03:38:04.290Z,4.9
2023-05-02T03:42:47.024Z,5
2023-05-02T03:47:29.776Z,5
2023-05-02T03:52:12.393Z,4.9
2023-05-02T03:56:55.116Z,4.9
2023-05-02T04:01:37.932Z,4.9
2023-05-02T04:15:46.071Z,5.3
2023-05-02T04:20:28.788Z,5.2
2023-05-02T04:25:10.805Z,5.3
2023-05-02T04:29:53.512Z,5.5
2023-05-02T04:34:36.335Z,5.7
2023-05-02T04:39:18.346Z,5.8
2023-05-02T04:44:01.112Z,5.8
2023-05-02T04:48:43.780Z,6
2023-05-02T04:58:09.304Z,6.3
2023-05-02T05:02:52.119Z,6.5
2023-05-02T05:07:34.149Z,6.9
2023-05-02T05:12:16.751Z,7.3
2023-05-02T05:21:42.220Z,7.9
2023-05-02T05:26:24.900Z,8.5
2023-05-02T05:31:07.753Z,8.8
2023-05-02T05:40:33.215Z,9.2
2023-05-02T05:45:15.898Z,9.5
2023-05-02T05:49:58.754Z,9.7
2023-05-02T05:59:24.027Z,10
2023-05-02T06:04:06.843Z,10.1
2023-05-02T06:08:49.638Z,10.2
2023-05-02T06:13:32.453Z,10.4
2023-05-02T06:18:14.999Z,10.4
2023-05-02T06:22:57.778Z,10.6
2023-05-02T06:32:23.215Z,10.9
2023-05-02T06:37:05.953Z,11.1
2023-05-02T06:41:48.645Z,11
2023-05-02T06:46:31.356Z,11.1
2023-05-02T06:51:14.090Z,11
2023-05-02T06:55:56.809Z,11.3
2023-05-02T07:00:39.666Z,11.8
2023-05-02T07:05:22.354Z,11.7
2023-05-02T07:10:05.216Z,11.8
2023-05-02T07:14:47.854Z,12.1
2023-05-02T07:19:30.464Z,12.5
2023-05-02T07:24:13.180Z,12.7
2023-05-02T07:28:56.003Z,12.6
2023-05-02T07:33:38.751Z,12.9
2023-05-02T07:43:04.313Z,12.1
2023-05-02T07:47:46.872Z,11.9
2023-05-02T07:52:29.595Z,12
2023-05-02T08:01:55.651Z,12.3
2023-05-02T08:06:38.995Z,12.7
2023-05-02T08:11:21.910Z,12.9
2023-05-02T08:16:04.974Z,12.9
2023-05-02T08:20:48.317Z,13.1
2023-05-02T08:30:14.922Z,13.4
2023-05-02T08:34:58.043Z,13.7
2023-05-02T08:39:41.347Z,14
2023-05-02T08:49:08.044Z,14.2
2023-05-02T08:53:51.103Z,13.7
2023-05-02T08:58:34.588Z,14.1
2023-05-02T09:08:01.089Z,13.5
2023-05-02T09:12:44.287Z,14.2
2023-05-02T09:26:54.173Z,16.3
2023-05-02T09:31:37.343Z,17.4
2023-05-02T09:36:20.671Z,17
2023-05-02T09:41:03.967Z,18.4
2023-05-02T09:45:47.234Z,18.9
2023-05-02T09:50:30.181Z,18.1
2023-05-02T09:59:56.727Z,18.5
2023-05-02T10:04:40.084Z,19.3
2023-05-02T10:09:23.139Z,18.3
2023-05-02T10:14:06.552Z,16.9
2023-05-02T10:18:49.708Z,16.9
2023-05-02T10:23:32.920Z,16.9
2023-05-02T10:28:15.920Z,17.3
2023-05-02T10:32:59.055Z,17.7
2023-05-02T10:37:42.414Z,16.6
2023-05-02T10:42:25.727Z,17.1
2023-05-02T10:47:08.789Z,18
2023-05-02T10:51:52.181Z,19.5
2023-05-02T10:56:35.456Z,21.3
2023-05-02T11:01:18.613Z,20
2023-05-02T11:06:01.992Z,21.5
2023-05-02T11:10:45.218Z,22.9
2023-05-02T11:20:11.744Z,27.5
2023-05-02T11:24:55.053Z,27.5
2023-05-02T11:29:38.275Z,24.8
2023-05-02T11:34:21.625Z,25.9
2023-05-02T11:39:04.668Z,26.3
2023-05-02T11:43:47.767Z,21.1
2023-05-02T11:48:31.174Z,24.2
2023-05-02T11:53:14.376Z,25.8
2023-05-02T12:02:40.961Z,25.3
2023-05-02T12:12:07.431Z,30.4
2023-05-02T12:16:50.705Z,24.9
2023-05-02T12:21:33.881Z,23.5
2023-05-02T12:26:17.311Z,23.7
2023-05-02T12:31:00.568Z,23.3
2023-05-02T12:35:43.873Z,22.5
2023-05-02T12:40:27.014Z,26
2023-05-02T12:45:10.363Z,28.4
2023-05-02T12:49:53.569Z,25.6
2023-05-02T12:54:36.909Z,22.6
2023-05-02T12:59:20.121Z,20.3
2023-05-02T13:04:03.506Z,19.7
2023-05-02T13:08:46.685Z,19.2
2023-05-02T13:18:13.165Z,17.7
2023-05-02T13:22:56.478Z,17.3
2023-05-02T13:37:05.993Z,18.1
2023-05-02T13:41:49.017Z,18.6
2023-05-02T13:51:15.491Z,17.9
2023-05-02T13:55:58.844Z,19.1
2023-05-02T14:00:41.489Z,19.8
2023-05-02T14:05:24.875Z,19.5
2023-05-02T14:10:07.999Z,21.4
2023-05-02T14:14:51.388Z,22
2023-05-02T14:24:18.005Z,20
2023-05-02T14:29:01.219Z,19.4
2023-05-02T14:33:44.450Z,18.7
2023-05-02T14:38:27.790Z,18.1
2023-05-02T14:43:10.820Z,18
2023-05-02T14:47:54.221Z,18.6
2023-05-02T14:52:37.490Z,19.8
2023-05-02T15:02:03.971Z,20.3
2023-05-02T15:06:47.201Z,21.5
2023-05-02T15:20:56.726Z,25.3
2023-05-02T15:25:39.950Z,25
2023-05-02T15:30:23.135Z,20.7
2023-05-02T15:35:06.305Z,21
2023-05-02T15:39:49.754Z,22.3
2023-05-02T15:44:32.996Z,21.8
2023-05-02T15:53:59.450Z,19.5
2023-05-02T15:58:42.727Z,21.6
2023-05-02T16:03:25.615Z,23.1
2023-05-02T16:12:52.151Z,24.1
2023-05-02T16:17:35.459Z,22.5
2023-05-02T16:22:18.771Z,22.3
2023-05-02T16:27:01.641Z,19.3
2023-05-02T16:31:44.853Z,20.9
2023-05-02T16:36:28.020Z,22.5
2023-05-02T16:41:11.505Z,24.4
2023-05-02T16:45:54.725Z,22.2
2023-05-02T16:55:21.159Z,22.2
2023-05-02T17:04:47.798Z,21.7
2023-05-02T17:14:14.163Z,22.6
2023-05-02T17:18:57.614Z,21.9
2023-05-02T17:28:24.006Z,20.9
2023-05-02T17:33:07.393Z,20.8
2023-05-02T17:37:50.210Z,20.8
2023-05-02T17:42:33.577Z,20.9
2023-05-02T17:47:16.646Z,20.4
2023-05-02T17:52:00.010Z,18.8
2023-05-02T17:56:43.237Z,17.9
2023-05-02T18:06:09.724Z,16.8
2023-05-02T18:10:52.974Z,16.5
2023-05-02T18:15:36.258Z,16.5
2023-05-02T18:20:19.504Z,16
2023-05-02T18:25:02.917Z,15.8
2023-05-02T18:29:46.209Z,15.5
2023-05-02T18:34:29.251Z,15.2
2023-05-02T18:39:12.566Z,15
2023-05-02T18:43:55.891Z,14.8
2023-05-02T18:48:39.219Z,14.3
2023-05-02T18:53:22.349Z,14.1
2023-05-02T18:58:05.750Z,13.7
2023-05-02T19:02:48.849Z,13.7
2023-05-02T19:12:15.482Z,13.7
2023-05-02T19:16:58.876Z,13.5
2023-05-02T19:21:41.927Z,13.6
2023-05-02T19:26:25.232Z,13.6
2023-05-02T19:31:08.683Z,13.5
2023-05-02T19:35:51.386Z,13.3
2023-05-02T19:40:34.701Z,13.2
2023-05-02T19:45:17.904Z,13.2
2023-05-02T19:50:01.429Z,13.3
2023-05-02T19:54:44.598Z,13.3
2023-05-02T19:59:27.451Z,13.1
2023-05-02T20:08:54.118Z,13.1
2023-05-02T20:13:37.347Z,12.8
2023-05-02T20:18:20.626Z,12.9
2023-05-02T20:27:47.151Z,12.6
2023-05-02T20:32:30.431Z,12.7
2023-05-02T20:37:13.573Z,12.7
2023-05-02T20:41:56.857Z,12.9
2023-05-02T20:46:40.105Z,12.9
2023-05-02T20:51:23.336Z,12.7
2023-05-02T20:56:06.889Z,12.8
2023-05-02T21:00:50.058Z,12.7
2023-05-02T21:05:32.949Z,12.3
2023-05-02T21:10:16.183Z,11.9
2023-05-02T21:14:59.523Z,11.7
2023-05-02T21:19:42.522Z,11.6
2023-05-02T21:24:26.006Z,11.5
2023-05-02T21:29:09.249Z,11.5
2023-05-02T21:33:52.549Z,11.5
2023-05-02T21:43:19.025Z,11.2
2023-05-02T21:48:02.281Z,11.1
2023-05-02T21:52:45.587Z,11
2023-05-02T21:57:28.725Z,11
2023-05-02T22:02:12.225Z,10.9
2023-05-02T22:06:55.186Z,10.8
2023-05-02T22:11:38.666Z,10.9
2023-05-02T22:16:21.891Z,10.8
2023-05-02T22:21:05.304Z,10.7
2023-05-02T22:25:48.386Z,10.8
2023-05-02T22:30:31.724Z,10.7
2023-05-02T22:39:58.214Z,10.6
2023-05-02T22:44:41.469Z,10.5
2023-05-02T22:49:24.828Z,10.3
2023-05-02T22:54:08.110Z,10.3
2023-05-02T22:58:51.316Z,10.3
2023-05-02T23:08:17.893Z,10.1
2023-05-02T23:13:01.041Z,10
2023-05-02T23:17:44.414Z,9.9
2023-05-02T23:22:27.629Z,9.8
2023-05-02T23:27:10.912Z,9.8
2023-05-02T23:31:53.588Z,9.7
2023-05-02T23:36:36.869Z,9.4
2023-05-02T23:41:20.282Z,9.6
2023-05-02T23:46:03.546Z,9.6
2023-05-02T23:50:46.741Z,9.5
